Time;durP1;ratioP1;P1;durP2;ratioP2;P2;SDS_P1;SDS_P2;PMS_P1;PMS_P2;Temp;Humidity;BMP_temperature;BMP_pressure;BME280_temperature;BME280_humidity;BME280_pressure;Samples;Min_cycle;Max_cycle;Signal;HPM_P1;HPM_P2
2022/12/11 00:02:24;;;;;;;24.50;11.88;;;0.00;99.90;;;;;;5012123;28;20109;-75
2022/12/11 00:04:50;;;;;;;26.35;14.00;;;0.10;99.90;;;;;;4994236;28;20037;-75
2022/12/11 00:07:18;;;;;;;22.60;11.65;;;0.00;99.90;;;;;;4995878;28;20101;-75
2022/12/11 00:09:44;;;;;;;25.65;12.13;;;0.10;99.90;;;;;;4995648;28;20443;-75
2022/12/11 00:12:09;;;;;;;21.63;11.10;;;0.00;99.90;;;;;;4993698;28;20022;-74
2022/12/11 00:14:35;;;;;;;23.17;11.25;;;0.10;99.90;;;;;;4995312;28;20036;-75
2022/12/11 00:17:01;;;;;;;22.48;11.68;;;0.00;99.90;;;;;;4995214;28;20043;-75
2022/12/11 00:19:38;;;;;;;24.88;12.63;;;0.00;99.90;;;;;;4994116;28;20087;-74
2022/12/11 00:22:07;;;;;;;24.92;11.70;;;0.00;99.90;;;;;;4993560;28;20026;-75
2022/12/11 00:24:39;;;;;;;24.20;12.18;;;-0.10;99.90;;;;;;4994835;28;20038;-76
2022/12/11 00:27:11;;;;;;;27.25;12.10;;;-0.10;99.90;;;;;;4992764;28;20042;-76
2022/12/11 00:29:36;;;;;;;27.05;12.68;;;-0.10;99.90;;;;;;4993999;28;20076;-75
2022/12/11 00:32:02;;;;;;;23.50;12.07;;;-0.10;99.90;;;;;;4993973;28;20515;-75
2022/12/11 00:34:27;;;;;;;25.13;12.27;;;-0.10;99.90;;;;;;4993138;28;20033;-75
2022/12/11 00:36:57;;;;;;;25.13;12.13;;;-0.10;99.90;;;;;;4992219;28;20053;-74
2022/12/11 00:39:29;;;;;;;26.48;12.43;;;-0.10;99.90;;;;;;4992448;28;20038;-76
2022/12/11 00:41:55;;;;;;;26.33;12.35;;;-0.10;99.90;;;;;;5003539;28;20026;-76
2022/12/11 00:44:20;;;;;;;22.92;12.18;;;-0.20;99.90;;;;;;5013626;28;20034;-75
2022/12/11 00:46:49;;;;;;;23.45;12.40;;;-0.20;99.90;;;;;;5013620;28;20494;-75
2022/12/11 00:49:21;;;;;;;21.98;11.23;;;-0.20;99.90;;;;;;5013343;28;20021;-75
2022/12/11 00:51:46;;;;;;;27.00;13.55;;;-0.10;99.90;;;;;;5013389;28;20056;-75
2022/12/11 00:54:12;;;;;;;27.52;12.90;;;-0.20;99.90;;;;;;4994940;28;20452;-76
2022/12/11 00:56:37;;;;;;;30.58;13.23;;;-0.20;99.90;;;;;;5008696;28;20033;-75
2022/12/11 00:59:03;;;;;;;28.65;13.52;;;-0.20;99.90;;;;;;5012087;28;20030;-76
2022/12/11 01:01:32;;;;;;;26.20;12.77;;;-0.20;99.90;;;;;;5001927;28;20113;-76
2022/12/11 01:04:03;;;;;;;27.60;13.93;;;-0.20;99.90;;;;;;4994286;28;20538;-76
2022/12/11 01:06:29;;;;;;;27.33;14.25;;;-0.20;99.90;;;;;;4994369;28;20063;-76
2022/12/11 01:11:41;;;;;;;27.63;14.20;;;-0.30;99.90;;;;;;4994132;28;20056;-76
2022/12/11 01:14:08;;;;;;;28.45;14.15;;;-0.20;99.90;;;;;;4993613;28;20049;-76
2022/12/11 01:16:33;;;;;;;25.63;14.48;;;-0.20;99.90;;;;;;4992737;28;20031;-76
2022/12/11 01:19:02;;;;;;;25.70;13.75;;;-0.20;99.90;;;;;;4992772;28;20050;-76
2022/12/11 01:21:28;;;;;;;25.10;13.02;;;-0.20;99.90;;;;;;4992486;28;20026;-76
2022/12/11 01:24:00;;;;;;;25.38;13.27;;;-0.20;99.90;;;;;;4993763;28;20027;-76
2022/12/11 01:26:26;;;;;;;22.25;12.35;;;-0.20;99.90;;;;;;4993662;28;20034;-76
2022/12/11 01:28:51;;;;;;;23.98;12.15;;;-0.20;99.90;;;;;;4993951;28;20432;-76
2022/12/11 01:31:21;;;;;;;27.50;13.05;;;-0.20;99.90;;;;;;4992520;28;20030;-76
2022/12/11 01:33:47;;;;;;;27.45;14.63;;;-0.20;99.90;;;;;;4992456;28;20045;-76
2022/12/11 01:36:22;;;;;;;26.52;13.75;;;-0.10;99.90;;;;;;4992162;28;20439;-76
2022/12/11 01:38:48;;;;;;;24.75;12.93;;;-0.20;99.90;;;;;;4993583;28;20077;-75
2022/12/11 01:41:20;;;;;;;26.85;13.32;;;-0.10;99.90;;;;;;4992844;28;20502;-75
2022/12/11 01:44:06;;;;;;;28.52;15.23;;;-0.10;99.90;;;;;;4991609;28;20027;-75
2022/12/11 01:46:34;;;;;;;28.15;12.80;;;-0.10;99.90;;;;;;4992780;28;20038;-75
2022/12/11 01:49:06;;;;;;;27.55;13.70;;;-0.10;99.90;;;;;;4992950;28;20065;-75
2022/12/11 01:51:37;;;;;;;25.83;13.10;;;-0.10;99.90;;;;;;4992801;28;20023;-75
2022/12/11 01:54:10;;;;;;;28.02;13.20;;;-0.10;99.90;;;;;;4991639;28;20030;-75
2022/12/11 01:56:38;;;;;;;24.25;13.90;;;0.00;99.90;;;;;;4991247;28;20030;-75
2022/12/11 01:59:08;;;;;;;25.58;13.10;;;0.00;99.90;;;;;;4991704;28;20037;-75
2022/12/11 02:02:06;;;;;;;25.83;13.07;;;0.00;99.90;;;;;;4993049;28;20018;-75
2022/12/11 02:04:34;;;;;;;30.73;14.65;;;0.00;99.90;;;;;;4990665;28;20426;-75
2022/12/11 02:07:02;;;;;;;27.15;13.85;;;0.00;99.90;;;;;;4992572;28;20041;-75
2022/12/11 02:09:40;;;;;;;24.48;12.32;;;0.00;99.90;;;;;;4991910;28;20030;-75
2022/12/11 02:12:20;;;;;;;27.10;13.27;;;0.00;99.90;;;;;;4992220;28;20391;-75
2022/12/11 02:15:15;;;;;;;26.35;13.07;;;0.00;99.90;;;;;;4991515;28;20169;-75
2022/12/11 02:17:47;;;;;;;28.15;14.20;;;0.00;99.90;;;;;;4992706;28;20019;-75
2022/12/11 02:20:34;;;;;;;26.00;13.38;;;-0.10;99.90;;;;;;4992580;28;20033;-75
2022/12/11 02:23:32;;;;;;;25.75;12.85;;;-0.10;99.90;;;;;;4992639;28;20073;-75
2022/12/11 02:26:06;;;;;;;26.90;13.02;;;0.00;99.90;;;;;;4991342;28;20030;-75
2022/12/11 02:28:55;;;;;;;25.95;12.88;;;0.00;99.90;;;;;;4992489;28;20022;-75
2022/12/11 02:31:49;;;;;;;25.80;13.00;;;0.00;99.90;;;;;;4992556;28;20022;-75
2022/12/11 02:34:36;;;;;;;26.15;12.27;;;0.00;99.90;;;;;;4992411;28;20034;-75
2022/12/11 02:37:11;;;;;;;26.23;11.85;;;0.00;99.90;;;;;;5002993;28;20026;-76
2022/12/11 02:39:41;;;;;;;26.00;13.88;;;0.00;99.90;;;;;;5002454;28;20026;-76
2022/12/11 02:42:09;;;;;;;25.38;12.35;;;0.00;99.90;;;;;;4992349;28;20026;-76
2022/12/11 02:44:36;;;;;;;27.83;12.82;;;0.00;99.90;;;;;;4991277;28;20030;-75
2022/12/11 02:47:04;;;;;;;26.73;13.50;;;-0.10;99.90;;;;;;4992505;28;20026;-75
2022/12/11 02:49:34;;;;;;;28.30;13.88;;;-0.10;99.90;;;;;;4992463;28;20037;-75
2022/12/11 02:52:05;;;;;;;28.88;14.25;;;-0.10;99.90;;;;;;4991309;28;20029;-75
2022/12/11 02:54:40;;;;;;;30.73;14.07;;;-0.10;99.90;;;;;;5006775;28;20030;-75
2022/12/11 02:57:10;;;;;;;26.60;13.32;;;-0.10;99.90;;;;;;5012034;28;20029;-76
2022/12/11 02:59:40;;;;;;;28.95;13.38;;;-0.20;99.90;;;;;;5013311;28;20463;-75
2022/12/11 03:02:10;;;;;;;30.02;14.68;;;-0.20;99.90;;;;;;5015414;28;20022;-76
2022/12/11 03:04:39;;;;;;;27.42;13.75;;;-0.20;99.90;;;;;;5014064;28;20049;-76
2022/12/11 03:07:13;;;;;;;27.67;13.60;;;-0.20;99.90;;;;;;5015448;28;20554;-75
2022/12/11 03:09:44;;;;;;;28.63;13.80;;;-0.20;99.90;;;;;;4997260;28;20026;-75
2022/12/11 03:12:23;;;;;;;24.33;13.25;;;-0.30;99.90;;;;;;4995667;28;20387;-76
2022/12/11 03:14:58;;;;;;;27.10;12.60;;;-0.30;99.90;;;;;;4994412;28;20030;-76
2022/12/11 03:18:02;;;;;;;25.55;12.90;;;-0.30;99.90;;;;;;4994145;28;20368;-75
2022/12/11 03:20:36;;;;;;;30.90;14.38;;;-0.30;99.90;;;;;;4979847;28;20458;-75
2022/12/11 03:23:21;;;;;;;24.15;12.43;;;-0.30;99.90;;;;;;4995604;28;20045;-76
2022/12/11 03:25:54;;;;;;;27.50;12.90;;;-0.30;99.90;;;;;;4994564;28;20603;-76
2022/12/11 03:29:09;;;;;;;27.58;13.52;;;-0.30;99.90;;;;;;4995380;28;20018;-75
2022/12/11 03:32:00;;;;;;;28.98;13.65;;;-0.30;99.90;;;;;;4987520;28;20035;-75
2022/12/11 03:34:49;;;;;;;27.17;13.23;;;-0.30;99.90;;;;;;4967491;28;20180;-76
2022/12/11 03:37:19;;;;;;;26.75;13.35;;;-0.30;99.90;;;;;;4994736;28;20117;-75
2022/12/11 03:39:51;;;;;;;28.30;13.43;;;-0.30;99.90;;;;;;4994544;28;20073;-75
2022/12/11 03:42:22;;;;;;;24.90;12.55;;;-0.20;99.90;;;;;;4994478;28;20047;-75
2022/12/11 03:44:53;;;;;;;24.80;13.05;;;-0.20;99.90;;;;;;4992988;28;20049;-75
2022/12/11 03:47:24;;;;;;;25.98;13.45;;;-0.30;99.90;;;;;;4993093;28;20022;-75
2022/12/11 03:49:55;;;;;;;29.52;13.32;;;-0.30;99.90;;;;;;4994213;28;20049;-75
2022/12/11 03:52:22;;;;;;;24.20;12.38;;;-0.30;99.90;;;;;;4994426;28;20057;-74
2022/12/11 03:54:49;;;;;;;25.65;12.82;;;-0.30;99.90;;;;;;4994380;28;20031;-76
2022/12/11 03:57:21;;;;;;;27.05;12.93;;;-0.40;99.90;;;;;;4993067;28;20033;-76
2022/12/11 03:59:53;;;;;;;27.55;13.43;;;-0.40;99.90;;;;;;4994275;28;20070;-75
2022/12/11 04:02:18;;;;;;;27.45;12.30;;;-0.50;99.90;;;;;;4994112;28;20025;-75
2022/12/11 04:04:53;;;;;;;28.27;13.80;;;-0.50;99.90;;;;;;4992862;28;20022;-75
2022/12/11 04:07:22;;;;;;;29.42;13.60;;;-0.50;99.90;;;;;;4994318;28;20022;-75
2022/12/11 04:09:50;;;;;;;29.30;13.32;;;-0.60;99.90;;;;;;4994240;28;20028;-75
2022/12/11 04:12:16;;;;;;;24.58;13.40;;;-0.60;99.90;;;;;;4993191;28;20033;-75
2022/12/11 04:26:07;;;;;;;25.50;11.98;;;-0.80;99.90;;;;;;4993601;28;20454;-75
2022/12/11 04:28:34;;;;;;;26.08;12.52;;;-0.80;99.90;;;;;;4992681;28;20112;-75
2022/12/11 04:31:09;;;;;;;23.80;11.88;;;-0.80;99.90;;;;;;4992857;28;20027;-76
2022/12/11 04:33:35;;;;;;;27.15;12.48;;;-0.80;99.90;;;;;;4992697;28;20027;-75
2022/12/11 04:36:00;;;;;;;22.23;11.63;;;-0.80;99.90;;;;;;4993302;28;20336;-75
2022/12/11 04:38:29;;;;;;;28.00;13.45;;;-0.80;99.90;;;;;;4993360;28;20035;-75
2022/12/11 04:40:59;;;;;;;25.10;12.40;;;-0.80;99.90;;;;;;4993635;28;20479;-75
2022/12/11 04:43:31;;;;;;;23.70;11.82;;;-0.80;99.90;;;;;;4993498;28;20038;-76
2022/12/11 04:46:04;;;;;;;22.85;11.88;;;-0.70;99.90;;;;;;5012445;28;20034;-76
2022/12/11 04:48:31;;;;;;;25.70;12.07;;;-0.70;99.90;;;;;;5011871;28;20109;-75
2022/12/11 04:51:02;;;;;;;23.83;11.70;;;-0.70;99.90;;;;;;5011563;28;20063;-75
2022/12/11 04:53:31;;;;;;;23.42;11.90;;;-0.70;99.90;;;;;;5013098;28;20033;-75
2022/12/11 04:56:00;;;;;;;24.42;12.32;;;-0.70;99.90;;;;;;5013061;28;20052;-74
2022/12/11 04:58:26;;;;;;;24.08;11.73;;;-0.80;99.90;;;;;;5013093;28;20080;-75
2022/12/11 05:00:55;;;;;;;23.15;11.85;;;-0.80;99.90;;;;;;5011781;28;20037;-75
2022/12/11 05:03:20;;;;;;;23.52;11.82;;;-0.70;99.90;;;;;;4999466;28;20041;-76
2022/12/11 05:05:49;;;;;;;22.67;11.43;;;-0.80;99.90;;;;;;4993588;28;20491;-75
2022/12/11 05:08:15;;;;;;;26.13;12.82;;;-0.80;99.90;;;;;;4992996;28;20045;-75
2022/12/11 05:10:41;;;;;;;25.13;12.25;;;-0.80;99.90;;;;;;4992918;28;20018;-76
2022/12/11 05:13:06;;;;;;;25.52;12.63;;;-0.80;99.90;;;;;;4995610;23;20054;-81
2022/12/11 05:15:32;;;;;;;21.33;11.23;;;-0.80;99.90;;;;;;4969025;28;20027;-81
2022/12/11 05:17:58;;;;;;;23.25;12.20;;;-0.80;99.90;;;;;;4961835;28;20636;-80
2022/12/11 05:20:23;;;;;;;24.00;11.48;;;-0.70;99.90;;;;;;4965311;28;20033;-80
2022/12/11 05:22:49;;;;;;;21.50;11.48;;;-0.80;99.90;;;;;;4963695;28;20023;-80
2022/12/11 05:25:15;;;;;;;21.42;10.85;;;-0.70;99.90;;;;;;4979649;28;20502;-81
2022/12/11 05:27:40;;;;;;;19.27;10.40;;;-0.70;99.90;;;;;;4963989;28;20019;-81
2022/12/11 05:30:07;;;;;;;24.63;11.20;;;-0.70;99.90;;;;;;4960080;28;20031;-81
2022/12/11 05:32:32;;;;;;;16.33;9.20;;;-0.70;99.90;;;;;;4986893;28;20094;-80
2022/12/11 05:34:58;;;;;;;20.20;9.80;;;-0.60;99.90;;;;;;4975808;28;20030;-80
2022/12/11 05:37:23;;;;;;;17.67;9.45;;;-0.60;99.90;;;;;;4972181;28;20062;-81
2022/12/11 05:39:49;;;;;;;23.95;11.30;;;-0.60;99.90;;;;;;4983852;28;20443;-82
2022/12/11 05:42:15;;;;;;;19.73;10.00;;;-0.60;99.90;;;;;;4981116;28;20042;-81
2022/12/11 05:44:40;;;;;;;21.50;10.30;;;-0.60;99.90;;;;;;4971055;28;20026;-81
2022/12/11 05:47:06;;;;;;;22.35;10.98;;;-0.70;99.90;;;;;;4968562;28;20036;-81
2022/12/11 05:49:31;;;;;;;21.67;10.50;;;-0.70;99.90;;;;;;4966538;28;20114;-81
2022/12/11 05:51:57;;;;;;;20.20;10.25;;;-0.60;99.90;;;;;;4961380;28;20467;-80
2022/12/11 05:54:22;;;;;;;19.52;10.13;;;-0.60;99.90;;;;;;4959819;28;20027;-81
2022/12/11 05:56:50;;;;;;;22.35;10.70;;;-0.60;99.90;;;;;;4969133;28;20050;-81
2022/12/11 05:59:17;;;;;;;21.30;11.02;;;-0.70;99.90;;;;;;4962524;28;20372;-81
2022/12/11 06:01:43;;;;;;;18.55;10.00;;;-0.60;99.90;;;;;;4969531;28;20031;-80
2022/12/11 06:04:10;;;;;;;20.10;10.15;;;-0.60;99.90;;;;;;4970350;28;20097;-80
2022/12/11 06:06:36;;;;;;;22.30;11.25;;;-0.60;99.90;;;;;;4983763;28;20130;-81
2022/12/11 06:09:03;;;;;;;22.80;9.80;;;-0.60;99.90;;;;;;4964539;28;20463;-81
2022/12/11 06:11:31;;;;;;;19.90;9.55;;;-0.60;99.90;;;;;;4968495;28;20019;-81
2022/12/11 06:13:57;;;;;;;19.60;9.68;;;-0.60;99.90;;;;;;4966671;28;20034;-80
2022/12/11 06:16:24;;;;;;;17.48;8.82;;;-0.60;99.90;;;;;;4967748;28;20034;-81
2022/12/11 06:18:50;;;;;;;21.63;9.77;;;-0.60;99.90;;;;;;4967221;28;20061;-78
2022/12/11 06:21:25;;;;;;;18.17;8.73;;;-0.60;99.90;;;;;;4989615;28;20042;-80
2022/12/11 06:23:54;;;;;;;19.25;8.88;;;-0.60;99.90;;;;;;5009142;28;20090;-81
2022/12/11 06:26:20;;;;;;;18.23;8.80;;;-0.60;99.90;;;;;;4997406;28;20022;-81
2022/12/11 06:28:47;;;;;;;18.27;8.93;;;-0.70;99.90;;;;;;4993150;28;20008;-81
2022/12/11 06:31:13;;;;;;;15.82;8.73;;;-0.70;99.90;;;;;;4989816;28;20072;-80
2022/12/11 06:33:39;;;;;;;16.98;8.63;;;-0.70;99.90;;;;;;4986731;28;20011;-81
2022/12/11 06:36:07;;;;;;;15.60;8.70;;;-0.80;99.90;;;;;;4996141;28;20029;-81
2022/12/11 06:38:33;;;;;;;15.13;8.10;;;-0.80;99.90;;;;;;4993103;28;20011;-81
2022/12/11 06:41:03;;;;;;;15.68;8.07;;;-0.90;99.90;;;;;;4990469;28;20034;-82
2022/12/11 06:43:29;;;;;;;15.30;7.97;;;-0.90;99.90;;;;;;4970469;28;20023;-81
2022/12/11 06:45:55;;;;;;;16.40;7.93;;;-0.90;99.90;;;;;;4975882;28;20034;-81
2022/12/11 06:48:20;;;;;;;16.23;8.35;;;-1.00;99.90;;;;;;4973476;28;20110;-81
2022/12/11 06:50:46;;;;;;;17.70;8.60;;;-1.00;99.90;;;;;;4972712;28;20054;-81
2022/12/11 06:53:13;;;;;;;15.07;7.47;;;-1.00;99.90;;;;;;4974157;28;20023;-81
2022/12/11 06:55:40;;;;;;;15.38;7.88;;;-1.00;99.90;;;;;;4967710;28;20030;-80
2022/12/11 06:58:07;;;;;;;16.90;9.02;;;-1.10;99.90;;;;;;4968671;28;20039;-80
2022/12/11 07:00:35;;;;;;;16.80;7.63;;;-1.20;99.90;;;;;;4963525;28;20505;-82
2022/12/11 07:03:00;;;;;;;19.13;9.10;;;-1.20;99.90;;;;;;4970515;28;20438;-82
2022/12/11 07:05:26;;;;;;;19.00;8.75;;;-1.20;99.90;;;;;;4965240;28;20126;-81
2022/12/11 07:07:55;;;;;;;17.00;8.88;;;-1.20;99.90;;;;;;4970121;28;20075;-81
2022/12/11 07:10:21;;;;;;;18.08;8.90;;;-1.20;99.90;;;;;;4972670;28;20023;-81
2022/12/11 07:12:47;;;;;;;15.48;8.05;;;-1.30;99.90;;;;;;4988355;28;20552;-81
2022/12/11 07:15:13;;;;;;;16.60;8.35;;;-1.30;99.90;;;;;;5005234;28;20102;-81
2022/12/11 07:17:38;;;;;;;18.15;8.88;;;-1.30;99.90;;;;;;4967490;28;20042;-81
2022/12/11 07:20:05;;;;;;;15.63;8.75;;;-1.30;99.90;;;;;;4967962;28;20051;-81
2022/12/11 07:22:30;;;;;;;17.92;8.40;;;-1.30;99.90;;;;;;4967828;28;20069;-81
2022/12/11 07:24:56;;;;;;;17.83;8.77;;;-1.40;99.90;;;;;;4983717;28;20042;-81
2022/12/11 07:27:22;;;;;;;19.10;8.02;;;-1.40;99.90;;;;;;4972595;28;20122;-81
2022/12/11 07:29:49;;;;;;;19.88;9.35;;;-1.40;99.90;;;;;;4974712;28;20114;-81
2022/12/11 07:32:15;;;;;;;17.33;8.70;;;-1.40;99.90;;;;;;4975895;28;20108;-81
2022/12/11 07:34:41;;;;;;;17.75;8.50;;;-1.40;99.90;;;;;;4974873;28;20491;-81
2022/12/11 07:37:06;;;;;;;18.27;8.57;;;-1.50;99.90;;;;;;4974171;28;20550;-81
2022/12/11 07:39:32;;;;;;;15.30;8.35;;;-1.50;99.90;;;;;;4971609;28;20418;-81
2022/12/11 07:41:58;;;;;;;19.05;9.88;;;-1.40;99.90;;;;;;4961391;28;20495;-82
2022/12/11 07:44:23;;;;;;;18.30;9.00;;;-1.50;99.90;;;;;;4966572;28;20059;-81
2022/12/11 07:46:49;;;;;;;19.55;8.45;;;-1.40;99.90;;;;;;4966674;28;20454;-81
2022/12/11 07:49:14;;;;;;;19.77;9.93;;;-1.40;99.90;;;;;;4966187;28;20089;-81
2022/12/11 07:51:42;;;;;;;18.98;10.13;;;-1.40;99.90;;;;;;4966447;28;20685;-82
2022/12/11 07:54:13;;;;;;;16.27;8.88;;;-1.30;99.90;;;;;;4974687;28;20031;-82
2022/12/11 07:56:39;;;;;;;17.35;8.93;;;-1.40;99.90;;;;;;4969184;28;20058;-81
2022/12/11 07:59:05;;;;;;;21.83;9.93;;;-1.40;99.90;;;;;;4971869;28;20070;-81
2022/12/11 08:01:36;;;;;;;24.00;10.77;;;-1.30;99.90;;;;;;4968225;28;20086;-80
2022/12/11 08:04:04;;;;;;;21.88;9.85;;;-1.20;99.90;;;;;;4971113;28;20026;-81
2022/12/11 08:06:32;;;;;;;19.83;9.80;;;-1.20;99.90;;;;;;4964387;28;20078;-81
2022/12/11 08:09:00;;;;;;;21.58;9.55;;;-1.20;99.90;;;;;;4969745;28;20479;-82
2022/12/11 08:11:26;;;;;;;20.75;9.88;;;-1.10;99.90;;;;;;4972609;28;20139;-82
2022/12/11 08:13:52;;;;;;;19.17;9.55;;;-1.10;99.90;;;;;;4969025;28;20023;-81
2022/12/11 08:16:18;;;;;;;18.90;8.93;;;-1.10;99.90;;;;;;4969732;28;20550;-81
2022/12/11 08:18:45;;;;;;;19.10;9.82;;;-1.10;99.90;;;;;;4967966;28;20030;-82
2022/12/11 08:21:22;;;;;;;19.50;10.50;;;-1.00;99.90;;;;;;4966227;28;20027;-83
2022/12/11 08:23:49;;;;;;;22.65;9.98;;;-1.10;99.90;;;;;;4965656;28;20121;-81
2022/12/11 08:26:26;;;;;;;18.30;9.60;;;-1.00;99.90;;;;;;4967774;28;20034;-81
2022/12/11 08:28:52;;;;;;;20.50;11.10;;;-1.10;99.90;;;;;;4962512;28;20436;-82
2022/12/11 08:31:19;;;;;;;22.25;10.13;;;-1.10;99.90;;;;;;4964936;28;20039;-81
2022/12/11 08:33:46;;;;;;;23.75;10.45;;;-1.10;99.90;;;;;;4966489;28;20387;-82
2022/12/11 08:36:15;;;;;;;21.65;9.88;;;-1.00;99.90;;;;;;4970703;28;20027;-82
2022/12/11 08:38:41;;;;;;;19.33;8.95;;;-1.00;99.90;;;;;;4966251;28;20114;-85
2022/12/11 08:41:12;;;;;;;18.60;8.75;;;-1.00;99.90;;;;;;4967356;28;20767;-82
2022/12/11 08:43:38;;;;;;;17.88;8.95;;;-1.00;99.90;;;;;;4968597;28;20123;-82
2022/12/11 08:46:05;;;;;;;20.65;10.00;;;-1.00;99.90;;;;;;4971509;28;20467;-82
2022/12/11 08:48:32;;;;;;;17.88;9.13;;;-0.90;99.90;;;;;;4973427;28;20019;-81
2022/12/11 08:51:00;;;;;;;19.98;9.18;;;-0.90;99.90;;;;;;4972859;28;20101;-82
2022/12/11 08:53:27;;;;;;;21.80;9.63;;;-0.90;99.90;;;;;;4969784;28;20023;-85
2022/12/11 08:55:53;;;;;;;19.58;9.40;;;-0.80;99.90;;;;;;4973434;28;20038;-84
2022/12/11 08:58:18;;;;;;;18.00;9.35;;;-0.70;99.90;;;;;;4964003;28;20023;-84
2022/12/11 09:00:44;;;;;;;18.45;9.05;;;-0.70;99.90;;;;;;4967840;28;20054;-84
2022/12/11 09:03:10;;;;;;;20.60;9.75;;;-0.60;99.90;;;;;;4972145;28;20037;-84
2022/12/11 09:05:37;;;;;;;17.58;7.68;;;-0.60;99.90;;;;;;4964569;28;20058;-84
2022/12/11 09:08:04;;;;;;;17.13;8.60;;;-0.60;99.90;;;;;;4968461;28;20054;-84
2022/12/11 09:10:30;;;;;;;18.73;8.70;;;-0.60;99.90;;;;;;4967286;28;20019;-80
2022/12/11 09:12:55;;;;;;;15.93;7.93;;;-0.50;99.90;;;;;;4967531;28;20023;-81
2022/12/11 09:15:21;;;;;;;16.95;8.35;;;-0.50;99.90;;;;;;4971827;28;20038;-80
2022/12/11 09:17:46;;;;;;;18.30;8.52;;;-0.40;99.90;;;;;;4983274;28;20023;-80
2022/12/11 09:20:12;;;;;;;20.33;10.07;;;-0.30;99.90;;;;;;4964221;28;20396;-81
2022/12/11 09:22:38;;;;;;;22.73;11.27;;;-0.30;99.90;;;;;;4964750;28;20081;-80
2022/12/11 09:25:04;;;;;;;18.73;10.17;;;-0.20;99.90;;;;;;4969081;28;20427;-79
2022/12/11 09:27:30;;;;;;;22.60;10.05;;;-0.20;99.90;;;;;;4964760;28;20495;-80
2022/12/11 09:29:55;;;;;;;23.58;12.07;;;-0.10;99.90;;;;;;4966522;28;20094;-80
2022/12/11 09:32:21;;;;;;;20.50;9.75;;;0.00;99.90;;;;;;4963727;28;20487;-81
2022/12/11 09:34:49;;;;;;;20.95;9.88;;;0.10;99.90;;;;;;4966408;28;20114;-80
2022/12/11 09:37:16;;;;;;;19.23;9.07;;;0.20;99.90;;;;;;4964965;28;20062;-81
2022/12/11 09:39:41;;;;;;;21.48;9.68;;;0.30;99.90;;;;;;4961306;28;20027;-79
2022/12/11 09:42:39;;;;;;;15.88;8.32;;;0.40;99.90;;;;;;4962445;28;21218;-80
2022/12/11 09:45:11;;;;;;;18.33;8.68;;;0.40;99.90;;;;;;4927531;28;20571;-80
2022/12/11 09:47:41;;;;;;;19.33;10.02;;;0.40;99.90;;;;;;4968889;28;20027;-79
2022/12/11 09:50:14;;;;;;;19.40;8.85;;;0.50;99.90;;;;;;4967628;28;20672;-79
2022/12/11 09:53:04;;;;;;;16.70;8.23;;;0.40;99.90;;;;;;4968618;28;20538;-80
2022/12/11 09:55:40;;;;;;;18.45;8.60;;;0.50;99.90;;;;;;4970233;28;20126;-79
2022/12/11 09:58:15;;;;;;;15.80;7.82;;;0.40;99.90;;;;;;4965163;28;20034;-79
2022/12/11 10:00:48;;;;;;;16.95;8.70;;;0.50;99.90;;;;;;4966012;28;20034;-79
2022/12/11 10:03:52;;;;;;;18.67;9.07;;;0.50;99.90;;;;;;4963321;28;20563;-80
2022/12/11 10:06:36;;;;;;;18.63;8.93;;;0.50;99.90;;;;;;4949264;28;20046;-80
2022/12/11 10:09:24;;;;;;;18.95;8.52;;;0.60;99.90;;;;;;4964381;28;20039;-80
2022/12/11 10:11:52;;;;;;;14.65;8.02;;;0.60;99.90;;;;;;4959923;28;20410;-80
2022/12/11 10:14:43;;;;;;;18.05;8.43;;;0.60;99.90;;;;;;4967147;28;20088;-80
2022/12/11 10:17:20;;;;;;;19.85;8.85;;;0.70;99.90;;;;;;4968982;28;20019;-80
2022/12/11 10:19:47;;;;;;;15.70;8.13;;;0.70;99.90;;;;;;4968986;28;20122;-80
2022/12/11 10:22:24;;;;;;;16.95;8.23;;;0.70;99.90;;;;;;4970622;28;20046;-81
2022/12/11 10:24:59;;;;;;;19.70;8.80;;;0.80;99.90;;;;;;4972508;28;20038;-80
2022/12/11 10:27:32;;;;;;;16.45;8.48;;;0.70;99.90;;;;;;4967222;28;20530;-80
2022/12/11 10:30:16;;;;;;;16.15;8.60;;;0.80;99.90;;;;;;4986424;28;20154;-80
2022/12/11 10:32:51;;;;;;;21.23;8.30;;;0.80;99.90;;;;;;4966793;28;20361;-80
2022/12/11 10:35:25;;;;;;;18.73;8.65;;;0.70;99.90;;;;;;4970598;28;20098;-80
2022/12/11 10:38:11;;;;;;;15.95;8.63;;;0.70;99.90;;;;;;4966381;28;20025;-79
2022/12/11 10:40:41;;;;;;;19.23;9.23;;;0.70;99.90;;;;;;4972516;28;20069;-80
2022/12/11 10:43:07;;;;;;;19.92;9.25;;;0.70;99.90;;;;;;4962760;28;20094;-79
2022/12/11 10:45:33;;;;;;;18.83;9.52;;;0.70;99.90;;;;;;4963206;28;20035;-79
2022/12/11 10:48:06;;;;;;;19.30;9.90;;;0.60;99.90;;;;;;4963863;28;20026;-80
2022/12/11 10:50:32;;;;;;;23.10;9.68;;;0.60;99.90;;;;;;4965023;28;20033;-79
2022/12/11 10:52:58;;;;;;;20.23;8.98;;;0.60;99.90;;;;;;4979945;28;20027;-80
2022/12/11 10:55:29;;;;;;;21.02;10.32;;;0.60;99.90;;;;;;4967968;28;20118;-80
2022/12/11 10:58:04;;;;;;;20.50;9.45;;;0.60;99.90;;;;;;4970380;28;20361;-80
2022/12/11 11:00:37;;;;;;;19.45;10.88;;;0.60;99.90;;;;;;4968000;28;20550;-80
2022/12/11 11:03:18;;;;;;;20.52;9.70;;;0.60;99.90;;;;;;4970178;28;21543;-80
2022/12/11 11:05:45;;;;;;;24.45;9.73;;;0.70;99.90;;;;;;4971242;28;20462;-80
2022/12/11 11:08:14;;;;;;;22.55;11.60;;;0.70;99.90;;;;;;4965771;28;20543;-80
2022/12/11 11:11:18;;;;;;;23.05;9.43;;;0.70;99.90;;;;;;4964702;28;20106;-79
2022/12/11 11:13:44;;;;;;;16.15;8.13;;;0.70;99.90;;;;;;4974917;23;20245;-76
2022/12/11 11:16:14;;;;;;;18.73;9.07;;;0.70;99.90;;;;;;4967146;28;20119;-75
2022/12/11 11:18:42;;;;;;;18.80;9.32;;;0.80;99.90;;;;;;4968822;28;20109;-76
2022/12/11 11:21:16;;;;;;;14.32;7.47;;;0.80;99.90;;;;;;4966495;28;20046;-76
2022/12/11 11:23:43;;;;;;;15.45;7.90;;;0.90;99.90;;;;;;4957639;28;20024;-75
2022/12/11 11:26:11;;;;;;;15.48;7.75;;;0.90;99.90;;;;;;4967923;28;20039;-76
2022/12/11 11:28:40;;;;;;;18.23;8.38;;;1.00;99.90;;;;;;4952843;28;20028;-75
2022/12/11 11:31:12;;;;;;;13.93;7.25;;;1.00;99.90;;;;;;4950004;28;20490;-76
2022/12/11 11:33:57;;;;;;;12.65;6.53;;;1.00;99.90;;;;;;4950138;28;20027;-75
2022/12/11 11:36:28;;;;;;;16.95;7.53;;;0.90;99.90;;;;;;4953555;28;20498;-75
2022/12/11 11:39:34;;;;;;;15.90;6.80;;;1.00;99.90;;;;;;4954103;28;20049;-76
2022/12/11 11:42:26;;;;;;;13.00;6.28;;;1.00;99.90;;;;;;4910783;29;20083;-75
2022/12/11 11:45:16;;;;;;;14.80;6.82;;;1.00;99.90;;;;;;4950730;28;20034;-75
2022/12/11 11:47:52;;;;;;;12.35;6.45;;;1.10;99.90;;;;;;4953600;28;20027;-75
2022/12/11 11:50:23;;;;;;;13.68;5.63;;;1.10;99.90;;;;;;4968814;28;20066;-75
2022/12/11 11:53:03;;;;;;;10.50;5.65;;;1.10;99.90;;;;;;4951976;28;20094;-75
2022/12/11 11:55:36;;;;;;;13.82;6.32;;;1.10;99.90;;;;;;4948942;28;20035;-76
2022/12/11 11:58:11;;;;;;;11.75;4.55;;;1.20;99.90;;;;;;4954218;28;20949;-76
2022/12/11 12:00:37;;;;;;;10.35;5.15;;;1.20;99.90;;;;;;4953852;28;20034;-76
2022/12/11 12:03:17;;;;;;;10.63;5.50;;;1.20;99.90;;;;;;4953467;28;20027;-76
2022/12/11 12:06:05;;;;;;;10.98;4.63;;;1.20;99.90;;;;;;4952485;28;20053;-76
2022/12/11 12:08:51;;;;;;;10.25;4.80;;;1.20;99.90;;;;;;4950296;28;20034;-76
2022/12/11 12:11:16;;;;;;;10.90;5.05;;;1.30;99.90;;;;;;4951820;28;20035;-77
2022/12/11 12:13:59;;;;;;;13.80;5.65;;;1.30;99.90;;;;;;4948307;28;20042;-75
2022/12/11 12:16:34;;;;;;;10.95;4.88;;;1.30;99.90;;;;;;4955633;28;20038;-75
2022/12/11 12:19:24;;;;;;;10.02;5.28;;;1.30;99.90;;;;;;4951385;28;20027;-75
2022/12/11 12:21:53;;;;;;;11.43;5.95;;;1.30;99.90;;;;;;4947817;28;20027;-75
2022/12/11 12:24:43;;;;;;;10.57;4.78;;;1.30;99.90;;;;;;4950359;28;20039;-75
2022/12/11 12:27:39;;;;;;;10.00;4.90;;;1.30;99.90;;;;;;4965524;28;20082;-75
2022/12/11 12:30:16;;;;;;;11.73;4.68;;;1.30;99.90;;;;;;4953732;28;20515;-75
2022/12/11 12:33:20;;;;;;;11.05;4.07;;;1.30;99.90;;;;;;4953008;28;20495;-75
2022/12/11 12:36:19;;;;;;;11.00;4.40;;;1.30;99.90;;;;;;4951603;28;20420;-75
2022/12/11 12:38:47;;;;;;;9.82;4.82;;;1.30;99.90;;;;;;4947713;28;20500;-75
2022/12/11 12:41:21;;;;;;;8.52;4.25;;;1.30;99.90;;;;;;4952697;28;20058;-75
2022/12/11 12:44:10;;;;;;;8.80;3.70;;;1.30;99.90;;;;;;4953504;28;20113;-76
2022/12/11 12:46:51;;;;;;;6.70;2.88;;;1.30;99.90;;;;;;4950748;28;20031;-76
2022/12/11 12:49:38;;;;;;;6.40;3.67;;;1.30;99.90;;;;;;4948755;28;20314;-76
2022/12/11 12:52:10;;;;;;;6.82;2.90;;;1.30;99.90;;;;;;4949505;28;20028;-76
2022/12/11 12:54:37;;;;;;;5.38;2.75;;;1.40;99.90;;;;;;4949205;28;20403;-76
2022/12/11 12:57:04;;;;;;;5.53;2.83;;;1.40;99.90;;;;;;4950264;28;20027;-76
2022/12/11 12:59:29;;;;;;;6.50;2.88;;;1.40;99.90;;;;;;4949402;28;20027;-76
2022/12/11 13:01:59;;;;;;;9.73;3.25;;;1.40;99.90;;;;;;4949420;28;20070;-76
2022/12/11 13:04:54;;;;;;;5.93;2.80;;;1.40;99.90;;;;;;4965167;28;20484;-76
2022/12/11 13:07:28;;;;;;;5.57;2.30;;;1.50;99.90;;;;;;4947792;28;20027;-76
2022/12/11 13:10:06;;;;;;;6.28;3.28;;;1.50;99.90;;;;;;4952158;28;20020;-76
2022/12/11 13:12:41;;;;;;;5.63;2.97;;;1.70;99.90;;;;;;4966112;28;20404;-76